Time;durP1;ratioP1;P1;durP2;ratioP2;P2;SDS_P1;SDS_P2;PMS_P1;PMS_P2;Temp;Humidity;BMP_temperature;BMP_pressure;BME280_temperature;BME280_humidity;BME280_pressure;Samples;Min_cycle;Max_cycle;Signal;HPM_P1;HPM_P2
2019/07/15 00:02:07;;;;;;;3.6;3.3;;;;;;;;;;;;;
2019/07/15 00:04:29;;;;;;;3.8;3.2;;;;;;;;;;;;;
2019/07/15 00:06:54;;;;;;;3.8;3.2;;;;;;;;;;;;;
2019/07/15 00:09:19;;;;;;;6.4;3.2;;;;;;;;;;;;;
2019/07/15 00:11:50;;;;;;;3.4;3;;;;;;;;;;;;;
2019/07/15 00:14:10;;;;;;;3.4;3.1;;;;;;;;;;;;;
2019/07/15 00:16:35;;;;;;;3.5;2.8;;;;;;;;;;;;;
2019/07/15 00:18:59;;;;;;;3.4;3;;;;;;;;;;;;;
2019/07/15 00:21:27;;;;;;;4.2;3.1;;;;;;;;;;;;;
2019/07/15 00:23:53;;;;;;;4.1;3.2;;;;;;;;;;;;;
2019/07/15 00:26:14;;;;;;;3.3;3;;;;;;;;;;;;;
2019/07/15 00:28:39;;;;;;;3.7;2.9;;;;;;;;;;;;;
2019/07/15 00:31:07;;;;;;;4.3;2.9;;;;;;;;;;;;;
2019/07/15 00:33:31;;;;;;;3.8;3;;;;;;;;;;;;;
2019/07/15 00:35:55;;;;;;;4;2.9;;;;;;;;;;;;;
2019/07/15 00:38:20;;;;;;;3.2;2.8;;;;;;;;;;;;;
2019/07/15 00:40:45;;;;;;;4.7;3.2;;;;;;;;;;;;;
2019/07/15 00:43:12;;;;;;;3.7;3.1;;;;;;;;;;;;;
2019/07/15 00:45:36;;;;;;;4.4;3.4;;;;;;;;;;;;;
2019/07/15 01:01:36;;;;;;;3.6;2.9;;;;;;;;;;;;;
2019/07/15 01:17:04;;;;;;;3.9;3.2;;;;;;;;;;;;;
2019/07/15 01:19:25;;;;;;;4.2;3.3;;;;;;;;;;;;;
2019/07/15 01:21:50;;;;;;;5.1;3.3;;;;;;;;;;;;;
2019/07/15 01:24:22;;;;;;;5.9;3.6;;;;;;;;;;;;;
2019/07/15 01:26:42;;;;;;;3.9;3.4;;;;;;;;;;;;;
2019/07/15 01:29:06;;;;;;;5.1;3.4;;;;;;;;;;;;;
2019/07/15 01:31:37;;;;;;;5.3;3.3;;;;;;;;;;;;;
2019/07/15 01:34:00;;;;;;;6.6;3.4;;;;;;;;;;;;;
2019/07/15 01:36:24;;;;;;;6.7;3.5;;;;;;;;;;;;;
2019/07/15 01:38:48;;;;;;;5.2;3.2;;;;;;;;;;;;;
2019/07/15 01:41:13;;;;;;;4.4;3.3;;;;;;;;;;;;;
2019/07/15 01:43:39;;;;;;;3.7;3.4;;;;;;;;;;;;;
2019/07/15 01:46:05;;;;;;;4.8;3.1;;;;;;;;;;;;;
2019/07/15 01:48:28;;;;;;;3.5;3;;;;;;;;;;;;;
2019/07/15 01:50:56;;;;;;;4.5;3.2;;;;;;;;;;;;;
2019/07/15 01:53:22;;;;;;;3.9;3.2;;;;;;;;;;;;;
2019/07/15 01:55:46;;;;;;;6.4;3.6;;;;;;;;;;;;;
2019/07/15 01:58:10;;;;;;;5;3.2;;;;;;;;;;;;;
2019/07/15 02:00:34;;;;;;;5.8;3.5;;;;;;;;;;;;;
2019/07/15 02:03:00;;;;;;;4;3.1;;;;;;;;;;;;;
2019/07/15 02:05:28;;;;;;;4.1;3.4;;;;;;;;;;;;;
2019/07/15 02:07:50;;;;;;;4.8;3.6;;;;;;;;;;;;;
2019/07/15 02:10:15;;;;;;;4.4;3.7;;;;;;;;;;;;;
2019/07/15 02:12:43;;;;;;;5.2;3.7;;;;;;;;;;;;;
2019/07/15 02:15:05;;;;;;;5.4;3.4;;;;;;;;;;;;;
2019/07/15 02:17:30;;;;;;;5.1;3.7;;;;;;;;;;;;;
2019/07/15 02:19:55;;;;;;;5;3.3;;;;;;;;;;;;;
2019/07/15 02:22:24;;;;;;;7.3;3.7;;;;;;;;;;;;;
2019/07/15 02:24:48;;;;;;;4.6;3;;;;;;;;;;;;;
2019/07/15 02:27:11;;;;;;;3.2;2.7;;;;;;;;;;;;;
2019/07/15 02:29:37;;;;;;;4;3.2;;;;;;;;;;;;;
2019/07/15 02:32:03;;;;;;;4.3;3.1;;;;;;;;;;;;;
2019/07/15 02:34:30;;;;;;;4.6;4;;;;;;;;;;;;;
2019/07/15 02:36:58;;;;;;;5.2;3.2;;;;;;;;;;;;;
2019/07/15 02:39:23;;;;;;;6;3.2;;;;;;;;;;;;;
2019/07/15 02:41:49;;;;;;;6.7;3.6;;;;;;;;;;;;;
2019/07/15 02:44:13;;;;;;;4.5;3.3;;;;;;;;;;;;;
2019/07/15 02:46:42;;;;;;;4.2;3.5;;;;;;;;;;;;;
2019/07/15 02:49:03;;;;;;;4.8;3.4;;;;;;;;;;;;;
2019/07/15 02:51:29;;;;;;;5.6;3.6;;;;;;;;;;;;;
2019/07/15 02:53:53;;;;;;;3.7;3.4;;;;;;;;;;;;;
2019/07/15 02:56:20;;;;;;;3.8;3.2;;;;;;;;;;;;;
2019/07/15 02:58:45;;;;;;;5.6;3.7;;;;;;;;;;;;;
2019/07/15 03:01:11;;;;;;;3.7;3.4;;;;;;;;;;;;;
2019/07/15 03:03:39;;;;;;;4;3.5;;;;;;;;;;;;;
2019/07/15 03:06:04;;;;;;;4.9;3.7;;;;;;;;;;;;;
2019/07/15 03:08:26;;;;;;;5.1;3.7;;;;;;;;;;;;;
2019/07/15 03:10:51;;;;;;;4.5;3.7;;;;;;;;;;;;;
2019/07/15 03:13:16;;;;;;;5.5;3.8;;;;;;;;;;;;;
2019/07/15 03:15:42;;;;;;;4.6;4;;;;;;;;;;;;;
2019/07/15 03:18:08;;;;;;;6.6;3.7;;;;;;;;;;;;;
2019/07/15 03:20:33;;;;;;;4.1;3.7;;;;;;;;;;;;;
2019/07/15 03:22:56;;;;;;;4.8;3.6;;;;;;;;;;;;;
2019/07/15 03:25:25;;;;;;;5.1;3.7;;;;;;;;;;;;;
2019/07/15 03:27:47;;;;;;;3.6;3.3;;;;;;;;;;;;;
2019/07/15 03:30:21;;;;;;;5.3;3;;;;;;;;;;;;;
2019/07/15 03:32:42;;;;;;;3.8;3.4;;;;;;;;;;;;;
2019/07/15 03:35:08;;;;;;;4.7;3.7;;;;;;;;;;;;;
2019/07/15 03:37:32;;;;;;;4.8;3.9;;;;;;;;;;;;;
2019/07/15 03:39:55;;;;;;;5.4;3.7;;;;;;;;;;;;;
2019/07/15 03:42:24;;;;;;;4.2;3.8;;;;;;;;;;;;;
2019/07/15 03:44:46;;;;;;;5.9;3.6;;;;;;;;;;;;;
2019/07/15 03:47:10;;;;;;;4.8;3.8;;;;;;;;;;;;;
2019/07/15 03:49:35;;;;;;;4.4;3.6;;;;;;;;;;;;;
2019/07/15 03:52:00;;;;;;;4.4;3.4;;;;;;;;;;;;;
2019/07/15 03:54:28;;;;;;;4.9;3.5;;;;;;;;;;;;;
2019/07/15 03:56:52;;;;;;;5.4;2.9;;;;;;;;;;;;;
2019/07/15 03:59:17;;;;;;;3.1;2.7;;;;;;;;;;;;;
2019/07/15 04:02:37;;;;;;;4.6;2.8;;;;;;;13.25;81.20605;936.0062;;;;
2019/07/15 04:05:02;;;;;;;5.2;2.9;;;;;;;13.11;81.50098;936.0294;;;;
2019/07/15 04:07:27;;;;;;;4.9;2.9;;;;;;;13.17;81.17773;936.0572;;;;
2019/07/15 04:09:56;;;;;;;4.8;2.9;;;;;;;13.28;80.85742;936.0748;;;;
2019/07/15 04:12:20;;;;;;;4.5;3;;;;;;;13.37;80.27441;936.0912;;;;
2019/07/15 04:14:44;;;;;;;6.9;3.1;;;;;;;13.47;80.29297;936.0758;;;;
2019/07/15 04:17:16;;;;;;;4.2;2.6;;;;;;;13.45;80.15137;936.0311;;;;
2019/07/15 04:19:36;;;;;;;3.7;2.9;;;;;;;13.35;80.54883;935.9817;;;;
2019/07/15 04:22:01;;;;;;;5.9;3.1;;;;;;;13.47;79.86719;936.0502;;;;
2019/07/15 04:24:30;;;;;;;6.1;3.2;;;;;;;13.4;80.54395;935.9767;;;;
2019/07/15 04:26:53;;;;;;;4.7;2.9;;;;;;;13.32;80.27734;935.9299;;;;
2019/07/15 04:29:20;;;;;;;3.5;2.7;;;;;;;13.32;80.17285;935.9731;;;;
2019/07/15 04:31:41;;;;;;;3.5;2.7;;;;;;;13.44;79.56348;935.9423;;;;
2019/07/15 04:34:06;;;;;;;3.3;2.7;;;;;;;13.51;79.93164;935.9269;;;;
2019/07/15 04:36:33;;;;;;;3.8;2.7;;;;;;;13.45;80.16309;935.976;;;;
2019/07/15 04:38:57;;;;;;;4.5;2.9;;;;;;;13.35;80.51465;935.9562;;;;
2019/07/15 04:41:23;;;;;;;3.5;2.7;;;;;;;13.38;80.23047;935.9664;;;;
2019/07/15 04:43:47;;;;;;;5.8;2.9;;;;;;;13.48;79.92871;936.015;;;;
2019/07/15 04:46:11;;;;;;;3.8;2.9;;;;;;;13.45;80.25488;936.0352;;;;
2019/07/15 04:48:37;;;;;;;2.8;2.5;;;;;;;13.57;79.74805;935.9801;;;;
2019/07/15 04:51:06;;;;;;;5.7;2.4;;;;;;;13.7;79.03613;935.9908;;;;
2019/07/15 04:53:34;;;;;;;5;2.4;;;;;;;13.86;78.13281;935.9652;;;;
2019/07/15 04:55:56;;;;;;;2.5;2.3;;;;;;;13.74;78.37598;936.0426;;;;
2019/07/15 04:58:22;;;;;;;4.4;2.3;;;;;;;13.77;78.39258;936.1367;;;;
2019/07/15 05:00:46;;;;;;;5.1;2.3;;;;;;;13.79;78.61621;936.1262;;;;
2019/07/15 05:03:18;;;;;;;3.8;2.4;;;;;;;13.94;79.34375;936.0798;;;;
2019/07/15 05:05:36;;;;;;;3.9;2.2;;;;;;;14.09;77.85352;936.0414;;;;
2019/07/15 05:08:03;;;;;;;3.8;2.4;;;;;;;14.32;77.27246;936.1183;;;;
2019/07/15 05:10:27;;;;;;;2.9;2.3;;;;;;;14.5;77.09668;936.0389;;;;
2019/07/15 05:12:55;;;;;;;4.4;2.5;;;;;;;14.88;76.89648;936.0429;;;;
2019/07/15 05:15:18;;;;;;;5.2;2.3;;;;;;;15.75;74.10254;936.0023;;;;
2019/07/15 05:17:44;;;;;;;4.6;2.2;;;;;;;16.91;70.14063;936.0811;;;;
2019/07/15 05:20:15;;;;;;;3;1.7;;;;;;;17.08;68.5918;936.0436;;;;
2019/07/15 05:22:40;;;;;;;6.2;2;;;;;;;17.45;66.71289;936.1094;;;;
2019/07/15 05:25:04;;;;;;;5.7;2.2;;;;;;;17.73;66.30273;936.1774;;;;
2019/07/15 05:27:33;;;;;;;5.2;2;;;;;;;17.71;65.11621;936.1584;;;;
2019/07/15 05:29:57;;;;;;;3.1;2.1;;;;;;;17.44;67.5;936.1014;;;;
2019/07/15 05:32:22;;;;;;;4.2;1.8;;;;;;;17.47;66.88965;936.1194;;;;
2019/07/15 05:34:53;;;;;;;2.5;1.9;;;;;;;17.47;67.16797;936.1411;;;;
2019/07/15 05:37:13;;;;;;;1.9;1.7;;;;;;;18;64.85547;936.1564;;;;
2019/07/15 05:39:38;;;;;;;3.4;1.8;;;;;;;18.18;64.94043;936.2155;;;;
2019/07/15 05:42:06;;;;;;;3.6;1.6;;;;;;;18.87;62.75;936.217;;;;
2019/07/15 05:44:33;;;;;;;3.6;2.1;;;;;;;19.03;62.34277;936.222;;;;
2019/07/15 05:46:58;;;;;;;5.1;2;;;;;;;19.34;60.37012;936.1817;;;;
2019/07/15 05:49:25;;;;;;;2.8;2;;;;;;;19.14;63.28906;936.1949;;;;
2019/07/15 05:51:48;;;;;;;4.3;1.8;;;;;;;19.88;59.35938;936.2394;;;;
2019/07/15 05:54:14;;;;;;;5.1;1.7;;;;;;;19.67;61.3125;936.2202;;;;
2019/07/15 05:56:42;;;;;;;3.4;1.7;;;;;;;20.53;57.35547;936.1597;;;;
2019/07/15 05:59:05;;;;;;;4;1.8;;;;;;;21.03;55.88867;936.1512;;;;
2019/07/15 06:01:30;;;;;;;4.7;1.7;;;;;;;21.23;54.65137;936.1236;;;;
2019/07/15 06:03:56;;;;;;;4.3;1.6;;;;;;;21.09;56.22363;936.1905;;;;
2019/07/15 06:06:22;;;;;;;3.4;1.6;;;;;;;21.43;55.36621;936.1908;;;;
2019/07/15 06:08:51;;;;;;;5.3;1.6;;;;;;;21.01;56.97363;936.2746;;;;
2019/07/15 06:11:19;;;;;;;2.1;1.9;;;;;;;22.05;51.70313;936.293;;;;
2019/07/15 06:13:41;;;;;;;2.5;2;;;;;;;23.1;49.25293;936.2327;;;;
2019/07/15 06:16:07;;;;;;;2.7;1.9;;;;;;;22.34;53.70898;936.2473;;;;
2019/07/15 06:18:31;;;;;;;2.5;2.2;;;;;;;22.39;53.31641;936.2395;;;;
2019/07/15 06:21:02;;;;;;;3.4;2.5;;;;;;;23.41;51.7793;936.2953;;;;
2019/07/15 06:23:22;;;;;;;4.6;2.3;;;;;;;23.79;49.30566;936.3027;;;;
2019/07/15 06:25:47;;;;;;;3.1;2.8;;;;;;;23.97;48.64258;936.2594;;;;
2019/07/15 06:28:12;;;;;;;4.2;2.9;;;;;;;23.9;47.80078;936.3038;;;;
2019/07/15 06:30:41;;;;;;;4.2;2.8;;;;;;;23;51.62598;936.36;;;;
2019/07/15 06:33:06;;;;;;;3.9;3.1;;;;;;;23.4;50.3916;936.4045;;;;
2019/07/15 06:35:35;;;;;;;7.2;3.2;;;;;;;22.89;52.81152;936.3848;;;;
2019/07/15 06:37:58;;;;;;;5.8;3.7;;;;;;;22.86;53.62988;936.3492;;;;
2019/07/15 06:40:22;;;;;;;7;3.5;;;;;;;23.54;50.92578;936.392;;;;
2019/07/15 06:42:47;;;;;;;5;3.6;;;;;;;23.93;48.80371;936.3342;;;;
2019/07/15 06:45:12;;;;;;;4;3.6;;;;;;;24.32;46.34863;936.3668;;;;
2019/07/15 06:47:42;;;;;;;3.7;2.9;;;;;;;23.89;49.40039;936.405;;;;
2019/07/15 06:50:04;;;;;;;3.5;3;;;;;;;23.6;49.55566;936.4313;;;;
2019/07/15 06:52:30;;;;;;;5.5;2.9;;;;;;;23.49;50.40137;936.4131;;;;
2019/07/15 06:54:56;;;;;;;3.3;2.9;;;;;;;23.66;49.77441;936.4653;;;;
2019/07/15 06:57:20;;;;;;;4.8;2.6;;;;;;;24.01;48.30566;936.4346;;;;
2019/07/15 06:59:47;;;;;;;4.5;3;;;;;;;24.55;47.26758;936.4622;;;;
2019/07/15 07:02:12;;;;;;;3;2.7;;;;;;;24.95;46.08301;936.4272;;;;
2019/07/15 07:04:41;;;;;;;2.8;2.5;;;;;;;24.41;47.70117;936.44;;;;
2019/07/15 07:07:05;;;;;;;3.6;2.7;;;;;;;24.85;46.96973;936.4858;;;;
2019/07/15 07:09:31;;;;;;;3.1;2.4;;;;;;;24.99;45.88672;936.4684;;;;
2019/07/15 07:11:58;;;;;;;3.4;2.3;;;;;;;25.91;43.25;936.4681;;;;
2019/07/15 07:14:25;;;;;;;2.8;2.2;;;;;;;26.4;42.52832;936.512;;;;
2019/07/15 07:16:50;;;;;;;3;2.7;;;;;;;25.76;43.91016;936.5392;;;;
2019/07/15 07:19:15;;;;;;;4;2.3;;;;;;;25.86;43.41113;936.5198;;;;
2019/07/15 07:21:42;;;;;;;2.9;2.4;;;;;;;25.87;44.86621;936.4885;;;;
2019/07/15 07:24:05;;;;;;;2.9;2.7;;;;;;;26.6;42.29785;936.4984;;;;
2019/07/15 07:26:30;;;;;;;4.6;2.6;;;;;;;26.89;42.39648;936.504;;;;
2019/07/15 07:28:58;;;;;;;3.8;2.7;;;;;;;27.1;41.14746;936.5087;;;;
2019/07/15 07:31:23;;;;;;;4.6;2.9;;;;;;;26.72;41.35059;936.4827;;;;
2019/07/15 07:33:47;;;;;;;3.3;2.9;;;;;;;26.68;43.05176;936.4275;;;;
2019/07/15 07:36:15;;;;;;;3.3;3;;;;;;;26.97;42.7832;936.4772;;;;
2019/07/15 07:38:42;;;;;;;3.4;2.8;;;;;;;27.36;41.37402;936.4609;;;;
2019/07/15 07:41:06;;;;;;;3.3;3;;;;;;;27.56;39.8252;936.5644;;;;
2019/07/15 07:43:34;;;;;;;5;2.9;;;;;;;27.65;40.35645;936.5759;;;;
2019/07/15 07:45:57;;;;;;;3.1;2.5;;;;;;;27.8;41.72363;936.5804;;;;
2019/07/15 07:48:22;;;;;;;3.2;2.6;;;;;;;26.83;40.70898;936.4997;;;;
2019/07/15 07:50:46;;;;;;;2.9;2.6;;;;;;;27.49;41.19727;936.6099;;;;
2019/07/15 07:53:14;;;;;;;3.7;2.6;;;;;;;27.78;39.29883;936.5581;;;;
2019/07/15 07:55:37;;;;;;;4.2;2.9;;;;;;;27.71;40.0166;936.5134;;;;
2019/07/15 07:58:03;;;;;;;3.3;2.5;;;;;;;28.84;38.32031;936.6478;;;;
2019/07/15 08:00:28;;;;;;;3.8;3;;;;;;;28.75;37.49219;936.6226;;;;
2019/07/15 08:02:55;;;;;;;2.7;2.5;;;;;;;28.79;37.55469;936.5728;;;;
2019/07/15 08:05:20;;;;;;;3.4;2.4;;;;;;;29.21;37.17383;936.5919;;;;
2019/07/15 08:07:44;;;;;;;3.7;2.7;;;;;;;29.16;37.25195;936.6063;;;;
2019/07/15 08:10:09;;;;;;;3.5;2.5;;;;;;;28.89;37.14648;936.6429;;;;
2019/07/15 08:12:36;;;;;;;3;2.2;;;;;;;28.61;38.4209;936.6195;;;;
2019/07/15 08:15:00;;;;;;;4.1;2.7;;;;;;;28.71;38.3584;936.6422;;;;
2019/07/15 08:17:25;;;;;;;5.2;2.7;;;;;;;28.98;36.78418;936.5275;;;;
2019/07/15 08:19:50;;;;;;;5.4;3.2;;;;;;;28.23;38.3877;936.5527;;;;
2019/07/15 08:22:23;;;;;;;4.8;2.9;;;;;;;27.62;39.93848;936.5058;;;;
2019/07/15 08:24:42;;;;;;;4.9;2.6;;;;;;;27.65;40.85449;936.5837;;;;
2019/07/15 08:27:08;;;;;;;3.1;2.8;;;;;;;27.33;40.29102;936.585;;;;
2019/07/15 08:29:32;;;;;;;4.8;2.7;;;;;;;27.24;40.94727;936.591;;;;
2019/07/15 08:31:56;;;;;;;4.8;3;;;;;;;26.74;41.32813;936.5457;;;;
2019/07/15 08:34:23;;;;;;;5.5;3.1;;;;;;;26.87;41.50586;936.5235;;;;
2019/07/15 08:36:47;;;;;;;4;2.9;;;;;;;26.97;41.37305;936.5726;;;;
2019/07/15 08:39:11;;;;;;;4.3;2.7;;;;;;;27.03;40.99902;936.5641;;;;
2019/07/15 08:41:36;;;;;;;3;2.7;;;;;;;26.77;41.56738;936.5538;;;;
2019/07/15 08:44:01;;;;;;;2.6;2.4;;;;;;;26.86;41.36328;936.4685;;;;
2019/07/15 08:46:30;;;;;;;2.9;2.3;;;;;;;27.21;41.3252;936.5553;;;;
2019/07/15 08:48:52;;;;;;;2.6;2.3;;;;;;;27.92;39.75098;936.5433;;;;
2019/07/15 08:51:17;;;;;;;3;2.1;;;;;;;28.66;38.59082;936.5648;;;;
2019/07/15 08:53:46;;;;;;;2.4;2.2;;;;;;;28.53;38.29395;936.5474;;;;
2019/07/15 08:56:09;;;;;;;4.3;2.4;;;;;;;28.89;37.47949;936.5734;;;;
2019/07/15 08:58:32;;;;;;;2.8;2.3;;;;;;;28.38;38.70898;936.5678;;;;
2019/07/15 09:00:56;;;;;;;3.4;2.4;;;;;;;27.87;38.47559;936.5563;;;;
2019/07/15 09:03:22;;;;;;;3.1;2.4;;;;;;;27.88;39.07031;936.5681;;;;
2019/07/15 09:05:49;;;;;;;4.4;2.4;;;;;;;27.38;41.00781;936.5461;;;;
2019/07/15 09:08:12;;;;;;;3;2.5;;;;;;;26.43;41.97461;936.5818;;;;
2019/07/15 09:10:37;;;;;;;4;3;;;;;;;25.6;43.87012;936.5914;;;;
2019/07/15 09:13:02;;;;;;;4.4;3;;;;;;;25.37;44.55664;936.5359;;;;
2019/07/15 09:15:34;;;;;;;3.4;2.8;;;;;;;25.07;45.63477;936.5092;;;;
2019/07/15 09:17:52;;;;;;;3.9;3;;;;;;;25.04;46.55273;936.4918;;;;
2019/07/15 09:20:18;;;;;;;3.3;3;;;;;;;24.62;48.03027;936.4294;;;;
2019/07/15 09:22:42;;;;;;;3.9;3.1;;;;;;;24.13;48.04883;936.4344;;;;
2019/07/15 09:25:10;;;;;;;3.8;2.8;;;;;;;24.27;48.81738;936.3826;;;;
2019/07/15 09:27:33;;;;;;;3.7;3;;;;;;;24.36;48.9209;936.387;;;;
2019/07/15 09:29:58;;;;;;;3.4;3;;;;;;;24.16;49.86523;936.4219;;;;
2019/07/15 09:32:24;;;;;;;4.8;2.9;;;;;;;23.91;48.84863;936.3586;;;;
2019/07/15 09:34:50;;;;;;;3.4;2.5;;;;;;;23.84;50.20605;936.4041;;;;
2019/07/15 09:37:16;;;;;;;3.9;2.5;;;;;;;23.41;52.0625;936.3812;;;;
2019/07/15 09:39:38;;;;;;;3.1;2.6;;;;;;;23.49;52.31836;936.4222;;;;
2019/07/15 09:42:04;;;;;;;2.8;2.5;;;;;;;23.64;52.15918;936.3868;;;;
2019/07/15 09:44:28;;;;;;;3.5;2.4;;;;;;;23.61;51.93164;936.3741;;;;
2019/07/15 09:46:56;;;;;;;2.9;2.5;;;;;;;23.76;51.14941;936.4034;;;;
2019/07/15 09:49:19;;;;;;;2.8;2.6;;;;;;;23.62;51.26367;936.4278;;;;
2019/07/15 09:51:45;;;;;;;4.1;2.4;;;;;;;23.64;52.77148;936.4077;;;;
2019/07/15 09:54:12;;;;;;;3.9;2.5;;;;;;;24;51.4375;936.4058;;;;
2019/07/15 09:56:38;;;;;;;4;2.8;;;;;;;24.07;50.41895;936.3876;;;;
2019/07/15 09:59:03;;;;;;;3.5;2.8;;;;;;;24.11;50.44824;936.4119;;;;
2019/07/15 10:01:25;;;;;;;4.5;2.6;;;;;;;23.9;50.41309;936.4039;;;;
2019/07/15 10:03:50;;;;;;;4.9;2.6;;;;;;;24.33;51.20313;936.3747;;;;
2019/07/15 10:06:19;;;;;;;2.7;2.5;;;;;;;24.36;50.37012;936.2958;;;;
2019/07/15 10:08:41;;;;;;;2.8;2.5;;;;;;;24.38;50.06641;936.3535;;;;
2019/07/15 10:11:06;;;;;;;3.1;2.5;;;;;;;24.34;50.01465;936.3423;;;;
2019/07/15 10:13:30;;;;;;;2.4;2.2;;;;;;;24.49;47.91016;936.3452;;;;
2019/07/15 10:16:01;;;;;;;2.6;2.4;;;;;;;23.87;49.92676;936.3134;;;;
2019/07/15 10:18:24;;;;;;;4;2.3;;;;;;;24.2;52.88574;936.3147;;;;
2019/07/15 10:20:47;;;;;;;3.2;2.3;;;;;;;24.11;49.34082;936.3808;;;;
2019/07/15 10:23:11;;;;;;;3.1;2.3;;;;;;;23.88;51.94043;936.3773;;;;
2019/07/15 10:25:45;;;;;;;3.7;2.4;;;;;;;23.63;50.44043;936.2839;;;;
2019/07/15 10:28:08;;;;;;;2.5;2.2;;;;;;;23.76;51.56152;936.3774;;;;
2019/07/15 10:58:15;;;;;;;3.3;2.4;;;;;;;25.38;47.7334;936.343;;;;
2019/07/15 11:00:42;;;;;;;2.2;2;;;;;;;25.39;47.85254;936.3457;;;;
2019/07/15 11:03:05;;;;;;;3;2.4;;;;;;;25.11;47.44531;936.3416;;;;
2019/07/15 11:05:30;;;;;;;4.2;2.5;;;;;;;24.45;49.26074;936.3301;;;;
2019/07/15 11:07:56;;;;;;;4;2.3;;;;;;;24;51.03711;936.3237;;;;
2019/07/15 11:10:20;;;;;;;3.4;2.4;;;;;;;23.68;52.02344;936.329;;;;
2019/07/15 11:12:47;;;;;;;3.2;2.3;;;;;;;23.42;51.92188;936.31;;;;
2019/07/15 11:15:13;;;;;;;4.4;2.4;;;;;;;23.17;53.4082;936.2913;;;;
2019/07/15 11:17:39;;;;;;;2.9;2.2;;;;;;;23.08;53.11719;936.3219;;;;
2019/07/15 11:20:09;;;;;;;3.2;2.4;;;;;;;22.52;55.15039;936.3508;;;;
2019/07/15 11:22:33;;;;;;;5;2.6;;;;;;;22.73;56.13867;936.2469;;;;
2019/07/15 11:24:58;;;;;;;3.9;2.4;;;;;;;;;;;;;
2019/07/15 11:27:28;;;;;;;3;2.3;;;;;;;22.86;54.47559;936.3504;;;;
2019/07/15 11:29:52;;;;;;;3.3;2.3;;;;;;;22.73;55.2334;936.3819;;;;
2019/07/15 11:32:24;;;;;;;2.8;2.3;;;;;;;22.83;55.2002;936.3368;;;;
2019/07/15 11:34:38;;;;;;;2.9;2.1;;;;;;;23.08;53.75;936.34;;;;
2019/07/15 11:37:06;;;;;;;2.6;2.2;;;;;;;23.06;54.5;936.3253;;;;
2019/07/15 11:39:29;;;;;;;3.1;2.2;;;;;;;23.25;53.94727;936.2531;;;;
2019/07/15 11:41:54;;;;;;;4.3;2.4;;;;;;;23.17;53.90332;936.2213;;;;
2019/07/15 11:44:18;;;;;;;3.4;2.1;;;;;;;23.45;54.05371;936.2808;;;;
2019/07/15 11:46:49;;;;;;;3.4;2.4;;;;;;;23.87;53.93945;936.1924;;;;
2019/07/15 11:49:17;;;;;;;3.7;2.4;;;;;;;24.52;49.7998;936.2273;;;;
2019/07/15 11:51:43;;;;;;;3.4;2.5;;;;;;;24.53;50.75488;936.2481;;;;
2019/07/15 11:54:09;;;;;;;2.7;2.5;;;;;;;24.3;49.28027;936.235;;;;
2019/07/15 11:56:34;;;;;;;2.7;2.5;;;;;;;23.89;50.54199;936.327;;;;
2019/07/15 11:59:01;;;;;;;3.2;2.3;;;;;;;23.59;51.97656;936.3035;;;;
2019/07/15 12:01:30;;;;;;;2.6;2.4;;;;;;;23.5;51.80273;936.3119;;;;
2019/07/15 12:03:49;;;;;;;4.2;2.6;;;;;;;23.08;53.36328;936.2739;;;;
2019/07/15 12:06:25;;;;;;;6.2;2.7;;;;;;;22.76;55.25;936.2294;;;;
2019/07/15 12:08:53;;;;;;;4.1;2.6;;;;;;;22.5;55.35938;936.1853;;;;
2019/07/15 12:11:15;;;;;;;5.6;2.8;;;;;;;22.03;57.82031;936.287;;;;
2019/07/15 12:13:41;;;;;;;3.4;2.8;;;;;;;21.73;60.61523;936.2394;;;;
2019/07/15 12:16:06;;;;;;;4.1;3;;;;;;;21.6;60.28125;936.2407;;;;
2019/07/15 12:18:34;;;;;;;4.6;2.9;;;;;;;21.59;59.69434;936.134;;;;
2019/07/15 12:20:58;;;;;;;3.9;3;;;;;;;21.47;58.14355;936.1685;;;;
2019/07/15 12:23:23;;;;;;;4.6;2.9;;;;;;;21.46;59.31445;936.0957;;;;
2019/07/15 12:25:50;;;;;;;3.4;3.1;;;;;;;21.46;57.52344;936.2562;;;;
2019/07/15 12:28:14;;;;;;;3.1;2.8;;;;;;;21.25;58.08105;936.2333;;;;
2019/07/15 12:30:39;;;;;;;4.4;2.9;;;;;;;21.38;57.91113;936.202;;;;
2019/07/15 12:33:05;;;;;;;4.6;2.8;;;;;;;21.46;56.7627;936.2123;;;;
2019/07/15 12:35:37;;;;;;;3.9;2.9;;;;;;;21.55;57.10156;936.2213;;;;
2019/07/15 12:37:56;;;;;;;4.2;2.7;;;;;;;21.68;56.50879;936.1862;;;;
2019/07/15 12:40:21;;;;;;;3.2;2.9;;;;;;;21.74;59.01172;936.2383;;;;
2019/07/15 12:42:46;;;;;;;3.1;2.8;;;;;;;21.93;57.02344;936.2361;;;;
2019/07/15 12:45:12;;;;;;;4.4;2.7;;;;;;;22.1;56.36426;936.1786;;;;
2019/07/15 12:47:40;;;;;;;4;2.7;;;;;;;21.96;57.4248;936.2756;;;;
2019/07/15 12:50:04;;;;;;;4.1;2.9;;;;;;;21.95;56.47461;936.2938;;;;
2019/07/15 12:52:30;;;;;;;3.9;2.7;;;;;;;21.96;55.6084;936.2966;;;;
2019/07/15 12:54:54;;;;;;;3.6;2.7;;;;;;;22;55.0625;936.2911;;;;
2019/07/15 12:57:22;;;;;;;4.5;2.8;;;;;;;22.07;52.91406;936.2988;;;;
2019/07/15 12:59:44;;;;;;;3.6;2.6;;;;;;;22.01;52.62598;936.272;;;;
2019/07/15 13:02:10;;;;;;;5.5;2.8;;;;;;;22.21;53.37598;936.2789;;;;
2019/07/15 13:04:37;;;;;;;3;2.6;;;;;;;22.5;55.01758;936.2773;;;;
2019/07/15 13:07:05;;;;;;;4.1;2.7;;;;;;;22.42;52.61523;936.2622;;;;
2019/07/15 13:09:26;;;;;;;3.8;2.6;;;;;;;22.34;51.45605;936.2394;;;;
2019/07/15 13:11:50;;;;;;;3.4;2.7;;;;;;;22.26;51.98535;936.2725;;;;
2019/07/15 13:14:14;;;;;;;3.2;2.7;;;;;;;22.43;53.54297;936.3342;;;;
2019/07/15 13:16:40;;;;;;;3.6;2.8;;;;;;;22.48;52.72754;936.3744;;;;
2019/07/15 13:19:06;;;;;;;4.2;2.9;;;;;;;22.38;51.89453;936.4405;;;;
2019/07/15 13:21:30;;;;;;;4.2;3;;;;;;;22.44;53.43945;936.3839;;;;
2019/07/15 13:23:58;;;;;;;4.2;2.8;;;;;;;22.31;54.72461;936.4684;;;;
2019/07/15 13:26:24;;;;;;;6;4;;;;;;;22.14;54.45703;936.5015;;;;
2019/07/15 13:28:50;;;;;;;3.9;3;;;;;;;21.96;53.99023;936.4573;;;;
2019/07/15 13:31:14;;;;;;;4.2;3.3;;;;;;;21.79;56.96973;936.6017;;;;
2019/07/15 13:33:36;;;;;;;5.9;3.5;;;;;;;21.57;59.18848;936.5731;;;;
2019/07/15 13:36:02;;;;;;;4.9;3.5;;;;;;;21.32;61.43652;936.6383;;;;
2019/07/15 13:38:26;;;;;;;5.6;3.6;;;;;;;21.18;64.85742;936.622;;;;
2019/07/15 13:40:52;;;;;;;5.5;3.8;;;;;;;20.82;67.42383;936.5901;;;;
2019/07/15 13:43:16;;;;;;;6.4;3.7;;;;;;;20.67;69.46777;936.5383;;;;
2019/07/15 13:45:43;;;;;;;8.2;4.1;;;;;;;20.69;71.46973;936.5222;;;;
2019/07/15 13:48:07;;;;;;;5.2;3.8;;;;;;;20.96;66.61426;936.5919;;;;
2019/07/15 13:50:32;;;;;;;7.2;4;;;;;;;21.25;68.28418;936.5703;;;;
2019/07/15 13:52:56;;;;;;;5.3;4.2;;;;;;;21.2;65.16504;936.5502;;;;
2019/07/15 13:55:24;;;;;;;6.2;4.2;;;;;;;21.45;67.08594;936.6722;;;;
2019/07/15 13:57:51;;;;;;;4.9;3.3;;;;;;;21.33;64.48145;936.6322;;;;
2019/07/15 14:00:15;;;;;;;5.5;4;;;;;;;21.31;67.27441;936.7222;;;;
2019/07/15 14:02:46;;;;;;;6;3.7;;;;;;;21.63;64.04492;936.7592;;;;
2019/07/15 14:05:08;;;;;;;6.5;4.3;;;;;;;21.81;66.9541;936.8279;;;;
2019/07/15 14:07:32;;;;;;;6.9;3.9;;;;;;;22.18;67.37109;936.8205;;;;
2019/07/15 14:09:55;;;;;;;4.4;3.6;;;;;;;22.41;62.57324;936.8515;;;;
2019/07/15 14:12:24;;;;;;;6.4;3.9;;;;;;;22.2;62.68457;936.8691;;;;
2019/07/15 14:14:46;;;;;;;4.5;3.6;;;;;;;21.78;64.1123;936.8853;;;;
2019/07/15 14:17:14;;;;;;;4.4;3.6;;;;;;;21.49;66.4707;936.9001;;;;
2019/07/15 14:19:37;;;;;;;4.5;3.3;;;;;;;21.13;65.00098;936.9146;;;;
2019/07/15 14:22:01;;;;;;;5;3.5;;;;;;;20.93;67.2168;936.9548;;;;
2019/07/15 14:24:29;;;;;;;4.3;3.1;;;;;;;20.68;67.86914;936.9764;;;;
2019/07/15 14:26:54;;;;;;;4;3.5;;;;;;;20.84;69.30762;936.9766;;;;
2019/07/15 14:29:19;;;;;;;6;3.8;;;;;;;20.74;67.9375;937.0715;;;;
2019/07/15 14:31:51;;;;;;;5.6;4;;;;;;;20.32;71.87598;937.0555;;;;
2019/07/15 14:34:09;;;;;;;5.3;4.1;;;;;;;19.73;72.83105;936.9866;;;;
2019/07/15 14:36:35;;;;;;;5.2;4.1;;;;;;;19.63;73.26855;936.9233;;;;
2019/07/15 14:39:00;;;;;;;5.6;4.7;;;;;;;19.89;75.5166;936.9704;;;;
2019/07/15 14:41:29;;;;;;;6.8;4.5;;;;;;;20.14;73.39844;936.9675;;;;
2019/07/15 14:43:51;;;;;;;8.8;4.5;;;;;;;19.94;69.08594;936.8856;;;;
2019/07/15 14:46:18;;;;;;;5.5;4.2;;;;;;;19.91;71.16797;936.9673;;;;
2019/07/15 14:48:41;;;;;;;7.2;4.1;;;;;;;20.17;70.25293;936.9067;;;;
2019/07/15 14:51:13;;;;;;;6.2;4.2;;;;;;;20.15;70.07422;936.88;;;;
2019/07/15 14:53:34;;;;;;;7.3;4.2;;;;;;;19.62;70.55078;936.929;;;;
2019/07/15 14:56:06;;;;;;;5.4;4;;;;;;;19.45;70.68652;936.8516;;;;
2019/07/15 14:58:31;;;;;;;5.9;4.6;;;;;;;19.36;72.83984;936.764;;;;
2019/07/15 15:00:55;;;;;;;5;4.2;;;;;;;19.29;73.28223;936.8159;;;;
2019/07/15 15:03:23;;;;;;;6.8;4.7;;;;;;;19.52;73.88086;936.8245;;;;
2019/07/15 15:05:50;;;;;;;5.5;4.4;;;;;;;19.71;72.41699;936.8265;;;;
2019/07/15 15:08:12;;;;;;;6.2;4.2;;;;;;;19.39;72.87988;936.8245;;;;
2019/07/15 15:10:36;;;;;;;5.7;4.5;;;;;;;19.31;73.27441;936.8397;;;;
2019/07/15 15:13:02;;;;;;;4.8;4.3;;;;;;;19.47;73.83594;936.7979;;;;
2019/07/15 15:15:28;;;;;;;4.2;3.8;;;;;;;19.34;72.8125;936.8278;;;;
2019/07/15 15:17:53;;;;;;;6.1;4.9;;;;;;;19.26;75.87598;936.7941;;;;
2019/07/15 15:20:17;;;;;;;5.7;4.2;;;;;;;19.44;72.87598;936.8964;;;;
2019/07/15 15:22:41;;;;;;;7.4;5;;;;;;;19.64;74.97363;936.9044;;;;
2019/07/15 15:25:09;;;;;;;6.2;4.8;;;;;;;19.74;74.14941;936.9299;;;;
2019/07/15 15:27:32;;;;;;;4.2;3.8;;;;;;;19.58;73.83008;936.8734;;;;
2019/07/15 15:29:57;;;;;;;4.6;4.1;;;;;;;19.25;74.42871;936.7405;;;;
2019/07/15 15:32:23;;;;;;;5.9;4.8;;;;;;;19.5;74.56445;936.8703;;;;
2019/07/15 15:34:52;;;;;;;5.9;4.9;;;;;;;19.51;73.49219;936.8097;;;;
2019/07/15 15:37:14;;;;;;;5.2;4.3;;;;;;;19.68;72.81055;936.8555;;;;
2019/07/15 15:39:39;;;;;;;6.5;4.7;;;;;;;19.66;74.47363;936.8028;;;;
2019/07/15 15:42:04;;;;;;;5.3;4;;;;;;;19.93;74.22949;936.8398;;;;
2019/07/15 15:44:28;;;;;;;5.2;4.2;;;;;;;20.04;73.01074;936.8118;;;;
2019/07/15 15:46:56;;;;;;;6.8;4.1;;;;;;;19.99;72.68457;936.8108;;;;
2019/07/15 15:49:19;;;;;;;6.6;4.3;;;;;;;20.18;72.08691;936.8151;;;;
2019/07/15 15:51:44;;;;;;;4.4;4;;;;;;;20.47;71.62012;936.7674;;;;
2019/07/15 15:54:09;;;;;;;4.7;4;;;;;;;20.59;70.74121;936.7338;;;;
2019/07/15 15:56:40;;;;;;;5.6;3.7;;;;;;;20.82;69.74902;936.8578;;;;
2019/07/15 15:59:03;;;;;;;4.5;3.6;;;;;;;20.88;70.44727;936.755;;;;
2019/07/15 16:01:27;;;;;;;4.8;3.7;;;;;;;21.08;65.84863;936.7965;;;;
2019/07/15 16:03:50;;;;;;;3.9;3.3;;;;;;;21;66.23438;936.7939;;;;
2019/07/15 16:06:15;;;;;;;5.9;3.9;;;;;;;20.82;66.30078;936.7024;;;;
2019/07/15 16:08:43;;;;;;;4.2;3.7;;;;;;;20.44;67.50488;936.6461;;;;
2019/07/15 16:11:06;;;;;;;6;4;;;;;;;20.21;68.50977;936.6556;;;;
2019/07/15 16:13:31;;;;;;;5.5;3.9;;;;;;;20.59;69.14063;936.678;;;;
2019/07/15 16:15:55;;;;;;;4.4;3.6;;;;;;;20.5;67.24512;936.7075;;;;
2019/07/15 16:18:27;;;;;;;4.3;3.6;;;;;;;20.55;69.36719;936.6962;;;;